Latest Weather Observations for Portland Harbour

IDV60801

Issued at 4:02 pm EDT Tuesday 23 December 2014 (issued every 30 minutes, with the page automatically refreshed every 10 minutes)

About weather observations | Map of weather stations | Latest weather observations for VIC | Other Formats
Station Details ID: 090192 Name: PORTLAND NTC AWS Lat: -38.34 Lon: 141.61 Height: 0.0 m
Data from the previous 72 hours. | See also: Recent months for locations in Victoria
Date/Time
EDT
Temp
°C
App
Temp
°C
Dew
Point
Rel
Hum
%
Delta-T
°C
Wind Press
QNH
hPa
Press
MSL
hPa
Rain
since 9 am
mm
Dir
 
Spd
km/h
Gust
km/h
Spd
kts
Gust
kts
23/04:00pm 16.6 - - - - SW 33 44 18 24 1013.5 1013.5 -
23/03:30pm 17.0 - - - - SW 32 41 17 22 1013.3 1013.3 -
23/03:00pm 16.5 - - - - SW 32 43 17 23 1013.0 1013.0 -
23/02:30pm 16.8 - - - - SW 28 37 15 20 1012.7 1012.7 -
23/02:00pm 17.3 - - - - SW 26 35 14 19 1012.6 1012.6 -
23/01:30pm 17.0 - - - - SW 26 37 14 20 1012.2 1012.2 -
23/01:00pm 15.9 - - - - SW 22 32 12 17 1012.1 1012.1 -
23/12:30pm 16.5 - - - - SW 26 39 14 21 1011.7 1011.7 -
23/12:00pm 17.1 - - - - SW 24 33 13 18 1011.2 1011.2 -
23/11:30am 16.7 - - - - SW 22 33 12 18 1011.1 1011.1 -
23/11:00am 16.5 - - - - SW 22 30 12 16 1010.6 1010.6 -
23/10:30am 16.4 - - - - SW 26 35 14 19 1010.2 1010.2 -
23/10:00am 16.6 - - - - SW 20 26 11 14 1009.8 1009.8 -
23/09:30am 16.4 - - - - SW 17 24 9 13 1009.6 1009.6 -
23/09:00am 16.6 - - - - WSW 17 24 9 13 1009.4 1009.4 -
23/08:30am 16.1 - - - - WSW 17 24 9 13 1009.1 1009.1 -
23/08:00am 16.4 - - - - W 15 24 8 13 1008.8 1008.8 -
23/07:30am 16.5 - - - - W 15 22 8 12 1008.3 1008.3 -
23/07:00am 16.5 - - - - W 13 17 7 9 1007.9 1007.9 -
23/06:30am 16.7 - - - - W 11 17 6 9 1007.7 1007.7 -
23/06:00am 16.9 - - - - WNW 13 19 7 10 1007.4 1007.4 -
23/05:30am 17.1 - - - - WNW 15 22 8 12 1007.3 1007.3 -
23/05:00am 17.4 - - - - W 15 22 8 12 1007.1 1007.1 -
23/04:30am 17.7 - - - - WNW 7 9 4 5 1006.8 1006.8 -
23/04:00am 18.2 - - - - NW 11 17 6 9 1006.8 1006.8 -
23/03:30am 18.0 - - - - NW 11 20 6 11 1006.6 1006.6 -
23/03:00am 17.6 - - - - N 9 15 5 8 1006.7 1006.7 -
23/02:30am 17.3 - - - - WNW 6 7 3 4 1007.0 1007.0 -
23/02:00am 17.5 - - - - N 7 9 4 5 1007.1 1007.1 -
23/01:30am 17.4 - - - - NNE 6 7 3 4 1007.3 1007.3 -
23/01:00am 17.0 - - - - NW 2 4 1 2 1007.2 1007.2 -
23/12:30am 17.2 - - - - WSW 4 6 2 3 1007.4 1007.4 -
23/12:00am 17.3 - - - - SW 4 6 2 3 1007.6 1007.6 -
 
Date/Time
EDT
Temp
°C
App
Temp
°C
Dew
Point
Rel
Hum
%
Delta-T
°C
Wind Press
QNH
hPa
Press
MSL
hPa
Rain
since 9 am
mm
Dir
 
Spd
km/h
Gust
km/h
Spd
kts
Gust
kts
22/11:30pm 17.3 - - - - NW 6 9 3 5 1008.1 1008.1 -
22/11:00pm 17.5 - - - - SSW 6 9 3 5 1007.6 1007.6 -
22/10:30pm 17.5 - - - - SSW 7 7 4 4 1007.5 1007.5 -
22/10:00pm 17.6 - - - - S 7 11 4 6 1007.6 1007.6 -
22/09:30pm 17.6 - - - - SE 7 13 4 7 1007.9 1007.9 -
22/09:00pm 17.8 - - - - ESE 7 11 4 6 1008.1 1008.1 -
22/08:30pm 17.9 - - - - SSE 6 9 3 5 1008.0 1008.0 -
22/08:00pm 17.8 - - - - SSW 4 7 2 4 1007.9 1007.9 -
22/07:30pm 17.7 - - - - SE 15 20 8 11 1007.4 1007.4 -
22/07:00pm 18.1 - - - - S 9 13 5 7 1006.8 1006.8 -
22/06:30pm 17.9 - - - - S 13 20 7 11 1006.9 1006.9 -
22/06:00pm 17.9 - - - - SSW 19 22 10 12 1006.8 1006.8 -
22/05:30pm 18.8 - - - - S 9 17 5 9 1007.0 1007.0 -
22/05:00pm 18.0 - - - - ESE 13 17 7 9 1007.0 1007.0 -
22/04:30pm 18.1 - - - - SE 22 28 12 15 1006.4 1006.4 -
22/04:00pm 17.8 - - - - SE 28 35 15 19 1006.5 1006.5 -
22/03:30pm 18.0 - - - - SE 22 28 12 15 1007.4 1007.4 -
22/03:00pm 18.1 - - - - SE 20 30 11 16 1008.0 1008.0 -
22/02:30pm 18.4 - - - - SE 20 30 11 16 1007.9 1007.9 -
22/02:00pm 20.3 - - - - ESE 11 15 6 8 1008.6 1008.6 -
22/01:30pm 19.8 - - - - ESE 4 9 2 5 1009.1 1009.1 -
22/01:00pm 19.1 - - - - NNE 4 11 2 6 1009.4 1009.4 -
22/12:30pm 18.8 - - - - E 17 22 9 12 1008.7 1008.7 -
22/12:00pm 18.7 - - - - NE 19 26 10 14 1009.4 1009.4 -
22/11:30am 18.4 - - - - ENE 13 20 7 11 1010.0 1010.0 -
22/11:00am 17.6 - - - - ENE 22 26 12 14 1009.8 1009.8 -
22/10:30am 17.2 - - - - E 33 41 18 22 1009.8 1009.8 -
22/10:00am 17.1 - - - - ENE 37 44 20 24 1010.2 1010.2 -
22/09:30am 17.0 - - - - E 32 43 17 23 1011.0 1011.0 -
22/09:00am 17.0 - - - - E 33 46 18 25 1010.3 1010.3 -
22/08:54am 17.0 - - - - ESE 32 43 17 23 1010.7 1010.7 -
22/08:30am 16.9 - - - - SE 39 48 21 26 1010.5 1010.5 -
22/08:00am 17.1 - - - - SE 26 39 14 21 1011.6 1011.6 -
22/07:30am 17.1 - - - - E 17 22 9 12 1012.7 1012.7 -
22/07:00am 17.0 - - - - E 20 28 11 15 1011.8 1011.8 -
22/06:30am 16.8 - - - - ESE 22 30 12 16 1011.7 1011.7 -
22/06:00am 16.7 - - - - ESE 17 22 9 12 1012.3 1012.3 -
22/05:30am 16.8 - - - - ESE 17 22 9 12 1012.2 1012.2 -
22/05:00am 16.6 - - - - E 26 32 14 17 1011.5 1011.5 -
22/04:30am 16.4 - - - - ENE 32 37 17 20 1011.5 1011.5 -
22/04:00am 16.3 - - - - E 28 33 15 18 1011.4 1011.4 -
22/03:30am 16.4 - - - - E 26 35 14 19 1011.7 1011.7 -
22/03:00am 16.4 - - - - ESE 24 32 13 17 1012.0 1012.0 -
22/02:30am 16.5 - - - - ESE 22 26 12 14 1012.9 1012.9 -
22/02:00am 16.4 - - - - ESE 19 26 10 14 1013.5 1013.5 -
22/01:30am 16.5 - - - - ESE 22 32 12 17 1013.8 1013.8 -
22/01:00am 16.5 - - - - ESE 20 26 11 14 1014.2 1014.2 -
22/12:30am 16.4 - - - - ESE 22 30 12 16 1014.2 1014.2 -
22/12:00am 16.4 - - - - ESE 22 28 12 15 1014.8 1014.8 -
 
Date/Time
EDT
Temp
°C
App
Temp
°C
Dew
Point
Rel
Hum
%
Delta-T
°C
Wind Press
QNH
hPa
Press
MSL
hPa
Rain
since 9 am
mm
Dir
 
Spd
km/h
Gust
km/h
Spd
kts
Gust
kts
21/11:30pm 16.6 - - - - SE 20 28 11 15 1015.2 1015.2 -
21/11:00pm 16.5 - - - - SE 22 30 12 16 1015.2 1015.2 -
21/10:30pm 16.5 - - - - SE 22 28 12 15 1015.0 1015.0 -
21/10:00pm 16.5 - - - - SE 22 28 12 15 1015.0 1015.0 -
21/09:30pm 16.7 - - - - SE 22 32 12 17 1014.9 1014.9 -
21/09:00pm 16.7 - - - - SE 20 28 11 15 1014.6 1014.6 -
21/08:30pm 17.0 - - - - SE 20 26 11 14 1014.5 1014.5 -
21/08:00pm 17.1 - - - - SE 22 28 12 15 1014.2 1014.2 -
21/07:30pm 17.1 - - - - SE 24 30 13 16 1014.0 1014.0 -
21/07:00pm 17.2 - - - - SSE 20 30 11 16 1013.7 1013.7 -
21/06:30pm 17.0 - - - - SSE 22 32 12 17 1013.5 1013.5 -
21/06:00pm 17.1 - - - - SSE 20 28 11 15 1013.4 1013.4 -
21/05:30pm 18.0 - - - - SSE 17 22 9 12 1013.4 1013.4 -
21/05:00pm 18.2 - - - - SSE 19 24 10 13 1013.4 1013.4 -
21/04:30pm 18.0 - - - - SE 20 24 11 13 1013.3 1013.3 -
21/04:00pm 18.4 - - - - SSE 17 22 9 12 1013.6 1013.6 -
21/03:30pm 18.2 - - - - SSE 17 20 9 11 1013.7 1013.7 -
21/03:00pm 17.9 - - - - SE 20 24 11 13 1013.6 1013.6 -
21/02:30pm 18.6 - - - - S 17 20 9 11 1013.8 1013.8 -
21/02:00pm 18.6 - - - - SSE 17 28 9 15 1014.1 1014.1 -
21/01:30pm 18.6 - - - - S 19 22 10 12 1014.2 1014.2 -
21/01:00pm 17.8 - - - - S 26 32 14 17 1014.3 1014.3 -
21/12:30pm 17.7 - - - - S 24 30 13 16 1014.6 1014.6 -
21/12:00pm 17.9 - - - - S 28 39 15 21 1014.7 1014.7 -
21/11:30am 20.8 - - - - SSW 22 30 12 16 1014.1 1014.1 -
21/11:00am 17.9 - - - - ESE 11 15 6 8 1013.9 1013.9 -
21/10:30am 16.9 - - - - ESE 7 11 4 6 1013.7 1013.7 -
21/10:00am 16.1 - - - - E 6 9 3 5 1013.6 1013.6 -
21/09:30am 15.9 - - - - ENE 6 7 3 4 1013.6 1013.6 -
21/09:00am 16.1 - - - - ESE 4 6 2 3 1013.7 1013.7 -
21/08:30am 15.3 - - - - ENE 6 9 3 5 1013.5 1013.5 -
21/08:00am 14.9 - - - - NE 6 9 3 5 1013.4 1013.4 -
21/07:30am 14.7 - - - - NE 11 13 6 7 1013.3 1013.3 -
21/07:00am 14.8 - - - - NE 11 13 6 7 1012.9 1012.9 -
21/06:30am 15.1 - - - - ENE 13 17 7 9 1012.8 1012.8 -
21/06:00am 15.1 - - - - ENE 15 17 8 9 1012.8 1012.8 -
21/05:30am 15.3 - - - - ENE 17 19 9 10 1012.6 1012.6 -
21/05:00am 15.5 - - - - E 15 20 8 11 1012.8 1012.8 -
21/04:30am 15.6 - - - - E 13 17 7 9 1013.3 1013.3 -
21/04:00am 15.2 - - - - ENE 9 11 5 6 1013.7 1013.7 -
21/03:30am 15.2 - - - - ENE 15 17 8 9 1013.7 1013.7 -
21/03:00am 15.3 - - - - NE 19 22 10 12 1013.5 1013.5 -
21/02:30am 15.3 - - - - NE 20 22 11 12 1013.8 1013.8 -
21/02:00am 15.9 - - - - ENE 20 22 11 12 1014.0 1014.0 -
21/01:30am 15.7 - - - - ENE 20 24 11 13 1014.6 1014.6 -
21/01:00am 16.0 - - - - ENE 17 22 9 12 1015.3 1015.3 -
21/12:30am 16.0 - - - - ENE 17 20 9 11 1016.1 1016.1 -
21/12:00am 16.0 - - - - E 15 19 8 10 1016.4 1016.4 -
 
Date/Time
EDT
Temp
°C
App
Temp
°C
Dew
Point
Rel
Hum
%
Delta-T
°C
Wind Press
QNH
hPa
Press
MSL
hPa
Rain
since 9 am
mm
Dir
 
Spd
km/h
Gust
km/h
Spd
kts
Gust
kts
20/11:30pm 16.1 - - - - E 13 19 7 10 1016.5 1016.5 -
20/11:00pm 16.1 - - - - E 13 15 7 8 1016.8 1016.8 -
20/10:30pm 16.1 - - - - ESE 13 17 7 9 1017.1 1017.1 -
20/10:00pm 16.4 - - - - SE 11 13 6 7 1017.1 1017.1 -
20/09:30pm 16.4 - - - - SE 11 13 6 7 1017.0 1017.0 -
20/09:00pm 16.7 - - - - SE 11 17 6 9 1017.1 1017.1 -
20/08:30pm 16.9 - - - - SSE 11 17 6 9 1017.2 1017.2 -
20/08:00pm 16.9 - - - - SSE 11 17 6 9 1017.1 1017.1 -
20/07:30pm 16.9 - - - - S 17 22 9 12 1016.9 1016.9 -
20/07:00pm 17.1 - - - - S 19 26 10 14 1016.7 1016.7 -
20/06:30pm 17.4 - - - - S 20 28 11 15 1016.7 1016.7 -
20/06:00pm 17.6 - - - - S 24 30 13 16 1016.7 1016.7 -
20/05:30pm 18.0 - - - - S 22 33 12 18 1017.0 1017.0 -
20/05:00pm 18.0 - - - - SSW 19 28 10 15 1017.2 1017.2 -
20/04:30pm 17.6 - - - - SSW 19 28 10 15 1017.4 1017.4 -

Other Formats:

Comma delimited format used in spreadsheet applications
http://www.bom.gov.au/fwo/IDV60801/IDV60801.95826.axf

JavaScript Object Notation format (JSON) in row-major order
http://www.bom.gov.au/fwo/IDV60801/IDV60801.95826.json